createdAt,value
2018-08-04T00:01:45.976Z,23.90
2018-08-04T00:04:15.477Z,24.00
2018-08-04T00:09:18.047Z,23.70
2018-08-04T00:11:46.910Z,23.60
2018-08-04T00:14:16.019Z,23.50
2018-08-04T00:16:45.345Z,23.40
2018-08-04T00:19:14.748Z,23.40
2018-08-04T00:21:42.940Z,23.40
2018-08-04T00:24:12.279Z,23.30
2018-08-04T00:26:42.460Z,23.40
2018-08-04T00:29:11.376Z,23.30
2018-08-04T00:31:39.749Z,23.10
2018-08-04T00:34:08.539Z,22.70
2018-08-04T00:36:37.804Z,22.60
2018-08-04T00:39:07.669Z,22.40
2018-08-04T00:41:37.119Z,22.30
2018-08-04T00:44:05.725Z,22.20
2018-08-04T00:46:34.517Z,22.30
2018-08-04T00:51:30.764Z,22.20
2018-08-04T00:53:58.965Z,22.10
2018-08-04T00:56:27.104Z,22.10
2018-08-04T01:01:24.763Z,22.00
2018-08-04T01:03:53.144Z,22.10
2018-08-04T01:06:21.260Z,22.00
2018-08-04T01:08:49.669Z,22.00
2018-08-04T01:11:18.484Z,22.20
2018-08-04T01:16:15.150Z,22.20
2018-08-04T01:18:44.544Z,22.10
2018-08-04T01:21:12.712Z,22.00
2018-08-04T01:26:09.192Z,22.20
2018-08-04T01:28:38.902Z,22.30
2018-08-04T01:31:08.118Z,22.30
2018-08-04T01:33:36.978Z,22.30
2018-08-04T01:36:05.608Z,22.30
2018-08-04T01:38:35.940Z,22.30
2018-08-04T01:41:05.701Z,22.20
2018-08-04T01:43:34.744Z,22.20
2018-08-04T01:46:03.392Z,22.10
2018-08-04T01:48:42.665Z,22.20
2018-08-04T01:51:14.963Z,22.30
2018-08-04T01:53:47.013Z,22.30
2018-08-04T01:56:15.107Z,22.20
2018-08-04T01:58:43.320Z,22.00
2018-08-04T02:01:11.900Z,21.90
2018-08-04T02:03:40.728Z,22.00
2018-08-04T02:06:10.098Z,22.10
2018-08-04T02:08:38.664Z,22.00
2018-08-04T02:11:06.884Z,21.80
2018-08-04T02:13:35.969Z,21.60
2018-08-04T02:16:04.357Z,21.60
2018-08-04T02:18:33.180Z,21.90
2018-08-04T02:21:02.556Z,22.20
2018-08-04T02:23:31.101Z,22.40
2018-08-04T02:25:59.268Z,22.50
2018-08-04T02:28:28.807Z,22.50
2018-08-04T02:30:57.633Z,22.40
2018-08-04T02:33:26.070Z,22.10
2018-08-04T02:35:56.819Z,21.90
2018-08-04T02:38:25.789Z,21.70
2018-08-04T02:40:54.516Z,21.60
2018-08-04T02:43:24.696Z,21.50
2018-08-04T02:45:53.555Z,21.50
2018-08-04T02:48:22.720Z,21.40
2018-08-04T02:50:54.391Z,21.30
2018-08-04T02:53:23.793Z,21.30
2018-08-04T02:55:52.124Z,21.20
2018-08-04T02:58:21.356Z,21.10
2018-08-04T03:00:50.445Z,20.90
2018-08-04T03:03:18.651Z,20.90
2018-08-04T03:05:47.572Z,21.00
2018-08-04T03:08:16.000Z,21.00
2018-08-04T03:10:44.784Z,21.00
2018-08-04T03:13:13.983Z,20.90
2018-08-04T03:15:42.231Z,21.00
2018-08-04T03:18:11.429Z,20.90
2018-08-04T03:20:40.976Z,20.90
2018-08-04T03:23:09.185Z,20.80
2018-08-04T03:25:38.780Z,20.90
2018-08-04T03:28:08.438Z,21.00
2018-08-04T03:30:37.864Z,20.90
2018-08-04T03:33:07.382Z,20.80
2018-08-04T03:35:36.488Z,20.80
2018-08-04T03:38:07.960Z,20.80
2018-08-04T03:40:37.168Z,20.60
2018-08-04T03:43:08.480Z,20.40
2018-08-04T03:45:37.276Z,20.20
2018-08-04T03:48:06.828Z,20.00
2018-08-04T03:50:35.033Z,20.00
2018-08-04T03:53:04.085Z,20.10
2018-08-04T03:55:33.261Z,20.10
2018-08-04T03:58:02.604Z,20.20
2018-08-04T04:00:30.812Z,20.20
2018-08-04T04:03:00.893Z,20.10
2018-08-04T04:05:29.074Z,20.20
2018-08-04T04:07:59.152Z,20.30
2018-08-04T04:10:27.579Z,20.40
2018-08-04T04:12:57.633Z,20.50
2018-08-04T04:15:26.978Z,20.50
2018-08-04T04:17:56.148Z,20.50
2018-08-04T04:20:24.317Z,20.50
2018-08-04T04:22:52.460Z,20.60
2018-08-04T04:25:23.056Z,20.60
2018-08-04T04:27:52.941Z,20.60
2018-08-04T04:30:21.482Z,20.60
2018-08-04T04:32:50.017Z,20.80
2018-08-04T04:35:19.453Z,20.90
2018-08-04T04:37:48.248Z,21.00
2018-08-04T04:40:16.678Z,21.10
2018-08-04T04:42:47.803Z,21.20
2018-08-04T04:45:16.589Z,21.30
2018-08-04T04:47:44.784Z,21.40
2018-08-04T04:50:16.372Z,21.60
2018-08-04T04:52:45.254Z,21.80
2018-08-04T04:55:14.182Z,22.00
2018-08-04T04:57:43.035Z,22.30
2018-08-04T05:00:12.217Z,22.50
2018-08-04T05:02:40.970Z,22.60
2018-08-04T05:05:15.784Z,22.80
2018-08-04T05:07:44.176Z,22.90
2018-08-04T05:10:12.651Z,22.90
2018-08-04T05:12:41.829Z,23.00
2018-08-04T05:17:38.865Z,23.60
2018-08-04T05:20:07.988Z,24.00
2018-08-04T05:22:36.709Z,24.20
2018-08-04T05:25:06.148Z,24.30
2018-08-04T05:27:35.270Z,24.40
2018-08-04T05:30:03.498Z,24.50
2018-08-04T05:32:32.148Z,24.70
2018-08-04T05:35:00.345Z,25.00
2018-08-04T05:37:29.479Z,25.30
2018-08-04T05:39:58.455Z,25.70
2018-08-04T05:42:29.668Z,26.20
2018-08-04T05:44:58.732Z,26.60
2018-08-04T05:47:26.921Z,26.90
2018-08-04T05:52:24.636Z,27.80
2018-08-04T05:54:52.894Z,28.20
2018-08-04T05:57:21.284Z,28.60
2018-08-04T05:59:51.417Z,29.00
2018-08-04T06:02:21.032Z,28.80
2018-08-04T06:04:50.793Z,28.50
2018-08-04T06:07:19.055Z,28.40
2018-08-04T06:09:49.147Z,28.30
2018-08-04T06:12:19.496Z,28.00
2018-08-04T06:14:49.530Z,27.80
2018-08-04T06:17:19.546Z,27.90
2018-08-04T06:19:49.624Z,28.40
2018-08-04T06:22:18.689Z,28.70
2018-08-04T06:24:48.241Z,28.80
2018-08-04T06:27:17.233Z,29.20
2018-08-04T06:29:46.308Z,30.00
2018-08-04T06:32:14.903Z,30.60
2018-08-04T06:34:44.485Z,31.30
2018-08-04T06:37:13.008Z,31.80
2018-08-04T06:39:43.496Z,32.10
2018-08-04T06:42:12.593Z,32.40
2018-08-04T06:44:40.786Z,32.70
2018-08-04T06:47:08.920Z,32.60
2018-08-04T06:49:38.696Z,32.30
2018-08-04T06:54:36.580Z,32.00
2018-08-04T06:57:06.294Z,32.10
2018-08-04T06:59:34.479Z,32.70
2018-08-04T07:02:03.068Z,33.40
2018-08-04T07:04:31.245Z,33.90
2018-08-04T07:07:00.088Z,34.20
2018-08-04T07:09:28.219Z,34.70
2018-08-04T07:11:57.271Z,35.20
2018-08-04T07:14:26.497Z,35.50
2018-08-04T07:16:56.264Z,36.10
2018-08-04T07:19:25.301Z,36.40
2018-08-04T07:21:54.302Z,36.70
2018-08-04T07:24:22.452Z,37.00
2018-08-04T07:26:51.648Z,37.40
2018-08-04T07:29:20.700Z,37.70
2018-08-04T07:31:49.448Z,38.00
2018-08-04T07:34:18.687Z,38.30
2018-08-04T07:36:47.020Z,38.90
2018-08-04T07:39:15.188Z,39.10
2018-08-04T07:41:43.705Z,39.30
2018-08-04T07:44:13.229Z,39.50
2018-08-04T07:46:42.064Z,39.80
2018-08-04T07:51:38.635Z,40.30
2018-08-04T07:54:07.223Z,40.40
2018-08-04T07:56:36.028Z,40.50
2018-08-04T07:59:05.750Z,40.80
2018-08-04T08:01:34.869Z,41.00
2018-08-04T08:04:05.983Z,41.20
2018-08-04T08:06:36.152Z,41.50
2018-08-04T08:09:06.269Z,41.90
2018-08-04T08:11:34.670Z,42.20
2018-08-04T08:14:04.357Z,42.50
2018-08-04T08:16:33.016Z,42.80
2018-08-04T08:19:03.280Z,42.80
2018-08-04T08:21:32.384Z,42.60
2018-08-04T08:24:01.796Z,42.20
2018-08-04T08:26:30.439Z,41.90
2018-08-04T08:28:58.656Z,41.60
2018-08-04T08:31:26.920Z,41.60
2018-08-04T08:33:59.632Z,41.40
2018-08-04T08:36:28.244Z,41.10
2018-08-04T08:38:56.740Z,40.80
2018-08-04T08:41:25.277Z,40.60
2018-08-04T08:43:54.811Z,40.40
2018-08-04T08:46:22.965Z,40.10
2018-08-04T08:48:51.286Z,40.60
2018-08-04T08:51:21.081Z,41.30
2018-08-04T08:53:49.699Z,41.90
2018-08-04T08:56:17.748Z,42.00
2018-08-04T08:58:45.977Z,41.70
2018-08-04T09:01:15.405Z,41.50
2018-08-04T09:03:43.814Z,41.40
2018-08-04T09:06:12.148Z,41.40
2018-08-04T09:08:42.372Z,41.50
2018-08-04T09:11:10.906Z,41.90
2018-08-04T09:13:39.776Z,42.10
2018-08-04T09:16:10.216Z,42.40
2018-08-04T09:18:40.271Z,42.00
2018-08-04T09:21:09.608Z,41.40
2018-08-04T09:23:38.461Z,40.60
2018-08-04T09:26:07.884Z,40.30
2018-08-04T09:28:36.006Z,40.60
2018-08-04T09:31:05.171Z,40.70
2018-08-04T09:33:33.340Z,41.00
2018-08-04T09:36:02.353Z,41.00
2018-08-04T09:38:31.106Z,40.70
2018-08-04T09:40:59.879Z,40.50
2018-08-04T09:43:28.928Z,40.20
2018-08-04T09:45:57.071Z,39.70
2018-08-04T09:48:25.519Z,39.90
2018-08-04T09:50:53.653Z,40.20
2018-08-04T09:53:24.895Z,40.30
2018-08-04T09:55:57.585Z,39.40
2018-08-04T09:58:26.925Z,38.50
2018-08-04T10:01:00.741Z,38.40
2018-08-04T10:03:28.887Z,38.70
2018-08-04T10:05:58.101Z,39.30
2018-08-04T10:08:26.884Z,39.60
2018-08-04T10:10:55.734Z,40.00
2018-08-04T10:13:24.484Z,40.00
2018-08-04T10:15:53.154Z,39.90
2018-08-04T10:18:21.315Z,40.50
2018-08-04T10:20:50.556Z,41.40
2018-08-04T10:23:20.321Z,41.70
2018-08-04T10:25:49.536Z,42.00
2018-08-04T10:28:17.746Z,42.40
2018-08-04T10:30:46.816Z,43.30
2018-08-04T10:33:15.520Z,43.50
2018-08-04T10:35:44.019Z,43.90
2018-08-04T10:38:12.940Z,44.00
2018-08-04T10:40:42.414Z,43.00
2018-08-04T10:43:14.397Z,43.30
2018-08-04T10:45:44.244Z,44.20
2018-08-04T10:48:12.494Z,44.10
2018-08-04T10:50:42.217Z,44.30
2018-08-04T10:53:10.799Z,44.90
2018-08-04T10:55:38.972Z,45.40
2018-08-04T10:58:08.035Z,45.30
2018-08-04T11:00:36.716Z,45.00
2018-08-04T11:03:05.651Z,44.80
2018-08-04T11:05:34.219Z,45.10
2018-08-04T11:08:04.155Z,45.70
2018-08-04T11:10:33.612Z,46.20
2018-08-04T11:13:03.734Z,46.40
2018-08-04T11:15:31.857Z,46.30
2018-08-04T11:18:00.040Z,46.10
2018-08-04T11:20:28.721Z,46.00
2018-08-04T11:22:57.803Z,46.00
2018-08-04T11:25:26.276Z,45.90
2018-08-04T11:27:57.496Z,45.60
2018-08-04T11:30:26.137Z,44.80
2018-08-04T11:32:55.009Z,44.10
2018-08-04T11:35:24.542Z,43.70
2018-08-04T11:37:52.934Z,43.20
2018-08-04T11:40:21.084Z,42.70
2018-08-04T11:42:49.813Z,42.80
2018-08-04T11:45:18.052Z,43.00
2018-08-04T11:47:47.216Z,43.00
2018-08-04T11:50:16.319Z,43.40
2018-08-04T11:52:44.488Z,43.60
2018-08-04T11:55:13.008Z,43.90
2018-08-04T11:57:48.826Z,44.40
2018-08-04T12:00:20.532Z,44.90
2018-08-04T12:02:50.006Z,45.50
2018-08-04T12:05:20.159Z,45.30
2018-08-04T12:07:48.289Z,44.50
2018-08-04T12:10:16.715Z,43.90
2018-08-04T12:12:45.277Z,44.60
2018-08-04T12:15:15.149Z,44.90
2018-08-04T12:17:44.793Z,45.10
2018-08-04T12:20:13.871Z,45.60
2018-08-04T12:22:42.705Z,46.20
2018-08-04T12:25:11.880Z,46.20
2018-08-04T12:27:41.294Z,45.80
2018-08-04T12:30:09.984Z,44.40
2018-08-04T12:32:38.327Z,44.70
2018-08-04T12:35:08.374Z,45.80
2018-08-04T12:37:37.635Z,46.40
2018-08-04T12:40:08.628Z,45.70
2018-08-04T12:42:38.323Z,44.40
2018-08-04T12:45:07.388Z,44.60
2018-08-04T12:47:37.303Z,43.90
2018-08-04T12:50:06.655Z,42.70
2018-08-04T12:52:37.347Z,43.30
2018-08-04T12:55:08.463Z,44.10
2018-08-04T12:57:37.024Z,43.50
2018-08-04T13:00:06.576Z,44.10
2018-08-04T13:02:36.635Z,44.40
2018-08-04T13:05:05.923Z,44.30
2018-08-04T13:07:34.850Z,44.90
2018-08-04T13:10:03.792Z,45.70
2018-08-04T13:12:32.195Z,46.30
2018-08-04T13:15:01.431Z,46.70
2018-08-04T13:17:30.508Z,47.00
2018-08-04T13:19:58.661Z,47.20
2018-08-04T13:22:27.972Z,47.60
2018-08-04T13:24:56.514Z,46.90
2018-08-04T13:27:24.660Z,46.10
2018-08-04T13:29:54.280Z,45.00
2018-08-04T13:32:24.272Z,44.40
2018-08-04T13:34:52.400Z,44.30
2018-08-04T13:37:23.083Z,43.90
2018-08-04T13:39:52.675Z,44.60
2018-08-04T13:42:21.044Z,45.00
2018-08-04T13:44:50.342Z,44.90
2018-08-04T13:47:19.165Z,43.50
2018-08-04T13:49:49.820Z,41.50
2018-08-04T13:52:18.066Z,41.10
2018-08-04T13:54:47.456Z,41.10
2018-08-04T13:57:16.991Z,41.20
2018-08-04T14:02:19.504Z,40.40
2018-08-04T14:04:48.499Z,40.80
2018-08-04T14:07:17.752Z,41.30
2018-08-04T14:09:45.916Z,40.50
2018-08-04T14:12:14.764Z,40.10
2018-08-04T14:14:43.811Z,39.40
2018-08-04T14:17:14.387Z,39.00
2018-08-04T14:19:43.557Z,39.50
2018-08-04T14:22:11.747Z,40.10
2018-08-04T14:24:40.920Z,40.00
2018-08-04T14:27:09.808Z,39.30
2018-08-04T14:29:38.000Z,39.20
2018-08-04T14:32:07.432Z,38.50
2018-08-04T14:34:35.900Z,38.50
2018-08-04T14:37:05.365Z,38.50
2018-08-04T14:39:35.151Z,38.70
2018-08-04T14:42:04.324Z,38.80
2018-08-04T14:44:34.032Z,39.10
2018-08-04T14:47:03.409Z,39.90
2018-08-04T14:49:32.137Z,39.90
2018-08-04T14:52:02.287Z,40.50
2018-08-04T14:54:31.329Z,41.50
2018-08-04T14:57:01.596Z,42.00
2018-08-04T14:59:31.318Z,41.30
2018-08-04T15:01:59.524Z,41.20
2018-08-04T15:04:29.209Z,41.20
2018-08-04T15:06:57.592Z,41.30
2018-08-04T15:09:26.300Z,41.90
2018-08-04T15:11:54.992Z,42.20
2018-08-04T15:14:24.131Z,41.50
2018-08-04T15:16:52.357Z,41.30
2018-08-04T15:19:20.560Z,41.80
2018-08-04T15:21:48.759Z,42.40
2018-08-04T15:24:17.515Z,41.80
2018-08-04T15:26:46.681Z,41.30
2018-08-04T15:29:16.916Z,41.20
2018-08-04T15:31:47.432Z,41.40
2018-08-04T15:34:17.424Z,41.50
2018-08-04T15:36:46.468Z,42.20
2018-08-04T15:41:44.304Z,42.50
2018-08-04T15:44:12.805Z,42.90
2018-08-04T15:46:43.118Z,43.00
2018-08-04T15:49:13.572Z,42.50
2018-08-04T15:51:42.264Z,41.60
2018-08-04T15:54:11.395Z,41.30
2018-08-04T15:56:39.919Z,41.20
2018-08-04T15:59:08.996Z,41.70
2018-08-04T16:01:39.009Z,42.10
2018-08-04T16:04:08.071Z,42.10
2018-08-04T16:06:36.383Z,41.20
2018-08-04T16:09:09.780Z,40.30
2018-08-04T16:11:38.635Z,40.60
2018-08-04T16:14:07.204Z,40.90
2018-08-04T16:16:36.207Z,41.00
2018-08-04T16:19:04.448Z,41.30
2018-08-04T16:21:32.644Z,41.20
2018-08-04T16:24:01.648Z,41.10
2018-08-04T16:26:31.469Z,40.80
2018-08-04T16:28:59.648Z,40.50
2018-08-04T16:31:29.302Z,40.50
2018-08-04T16:33:57.915Z,40.70
2018-08-04T16:36:26.659Z,40.70
2018-08-04T16:38:56.032Z,40.20
2018-08-04T16:41:25.347Z,39.80
2018-08-04T16:43:54.621Z,39.00
2018-08-04T16:48:52.536Z,38.10
2018-08-04T16:51:20.972Z,37.80
2018-08-04T16:53:49.143Z,37.70
2018-08-04T16:56:17.845Z,37.40
2018-08-04T16:58:46.539Z,37.20
2018-08-04T17:01:16.360Z,36.80
2018-08-04T17:03:45.013Z,36.30
2018-08-04T17:06:15.820Z,36.10
2018-08-04T17:08:43.950Z,35.90
2018-08-04T17:11:17.648Z,35.50
2018-08-04T17:13:45.841Z,35.40
2018-08-04T17:16:13.992Z,35.40
2018-08-04T17:18:42.144Z,35.40
2018-08-04T17:21:10.669Z,35.30
2018-08-04T17:23:39.851Z,35.10
2018-08-04T17:26:08.365Z,34.90
2018-08-04T17:28:37.088Z,34.80
2018-08-04T17:31:05.940Z,34.70
2018-08-04T17:33:34.638Z,34.60
2018-08-04T17:36:03.657Z,34.50
2018-08-04T17:38:32.173Z,34.50
2018-08-04T17:41:00.372Z,34.20
2018-08-04T17:43:30.147Z,34.10
2018-08-04T17:45:59.036Z,34.10
2018-08-04T17:50:55.182Z,33.80
2018-08-04T17:53:23.494Z,33.70
2018-08-04T17:55:51.657Z,33.70
2018-08-04T17:58:19.765Z,33.70
2018-08-04T18:00:48.528Z,33.60
2018-08-04T18:03:17.272Z,33.50
2018-08-04T18:05:46.097Z,33.40
2018-08-04T18:08:14.866Z,33.30
2018-08-04T18:10:43.005Z,33.10
2018-08-04T18:13:11.555Z,33.00
2018-08-04T18:15:40.980Z,32.90
2018-08-04T18:18:09.175Z,32.80
2018-08-04T18:20:37.445Z,32.70
2018-08-04T18:23:06.383Z,32.70
2018-08-04T18:25:34.528Z,32.50
2018-08-04T18:30:32.152Z,32.30
2018-08-04T18:33:01.666Z,32.10
2018-08-04T18:35:29.845Z,31.90
2018-08-04T18:37:58.861Z,31.80
2018-08-04T18:40:27.971Z,31.70
2018-08-04T18:42:56.483Z,31.50
2018-08-04T18:45:25.944Z,31.40
2018-08-04T18:47:56.837Z,31.10
2018-08-04T18:50:25.840Z,31.00
2018-08-04T18:52:54.761Z,30.90
2018-08-04T18:55:23.476Z,30.80
2018-08-04T18:57:52.970Z,30.70
2018-08-04T19:00:21.959Z,30.60
2018-08-04T19:02:51.550Z,30.50
2018-08-04T19:05:20.692Z,30.40
2018-08-04T19:07:50.100Z,30.30
2018-08-04T19:10:19.185Z,30.20
2018-08-04T19:12:47.344Z,30.10
2018-08-04T19:15:16.447Z,29.90
2018-08-04T19:17:45.573Z,29.80
2018-08-04T19:20:14.397Z,29.70
2018-08-04T19:22:42.546Z,29.60
2018-08-04T19:25:11.443Z,29.40
2018-08-04T19:27:41.064Z,29.30
2018-08-04T19:30:10.406Z,29.20
2018-08-04T19:32:38.981Z,29.00
2018-08-04T19:35:07.136Z,28.90
2018-08-04T19:37:36.543Z,28.80
2018-08-04T19:40:05.642Z,28.70
2018-08-04T19:42:36.067Z,28.60
2018-08-04T19:45:05.014Z,28.50
2018-08-04T19:47:33.568Z,28.40
2018-08-04T19:50:02.121Z,28.40
2018-08-04T19:52:30.875Z,28.20
2018-08-04T19:55:01.193Z,28.10
2018-08-04T19:57:30.337Z,28.00
2018-08-04T20:00:00.925Z,27.80
2018-08-04T20:02:30.250Z,27.80
2018-08-04T20:04:59.052Z,27.70
2018-08-04T20:07:27.644Z,27.60
2018-08-04T20:09:56.085Z,27.60
2018-08-04T20:12:25.060Z,27.50
2018-08-04T20:14:54.530Z,27.40
2018-08-04T20:17:25.127Z,27.30
2018-08-04T20:19:54.306Z,27.20
2018-08-04T20:22:23.780Z,27.20
2018-08-04T20:24:52.397Z,27.20
2018-08-04T20:27:21.165Z,27.10
2018-08-04T20:29:49.328Z,26.90
2018-08-04T20:32:18.006Z,26.80
2018-08-04T20:34:46.736Z,26.80
2018-08-04T20:37:15.305Z,26.80
2018-08-04T20:39:43.657Z,26.70
2018-08-04T20:42:12.749Z,26.70
2018-08-04T20:44:41.782Z,26.60
2018-08-04T20:47:10.017Z,26.60
2018-08-04T20:49:38.467Z,26.40
2018-08-04T20:52:08.827Z,26.40
2018-08-04T20:54:38.291Z,26.40
2018-08-04T20:57:09.174Z,26.30
2018-08-04T20:59:39.528Z,26.20
2018-08-04T21:02:08.193Z,26.10
2018-08-04T21:04:37.072Z,26.00
2018-08-04T21:07:07.570Z,26.00
2018-08-04T21:09:36.034Z,25.90
2018-08-04T21:12:05.240Z,25.90
2018-08-04T21:14:37.632Z,25.80
2018-08-04T21:17:06.868Z,25.70
2018-08-04T21:19:36.225Z,25.70
2018-08-04T21:22:04.756Z,25.60
2018-08-04T21:24:34.236Z,25.50
2018-08-04T21:27:02.429Z,25.50
2018-08-04T21:29:30.610Z,25.40
2018-08-04T21:31:59.160Z,25.40
2018-08-04T21:34:27.795Z,25.40
2018-08-04T21:36:56.752Z,25.40
2018-08-04T21:39:25.514Z,25.40
2018-08-04T21:41:54.535Z,25.30
2018-08-04T21:44:23.006Z,25.30
2018-08-04T21:46:52.197Z,25.20
2018-08-04T21:49:21.230Z,25.10
2018-08-04T21:51:50.740Z,25.10
2018-08-04T21:54:24.712Z,25.10
2018-08-04T21:56:53.801Z,25.20
2018-08-04T21:59:21.952Z,25.10
2018-08-04T22:01:54.741Z,25.00
2018-08-04T22:04:22.980Z,24.90
2018-08-04T22:08:18.214Z,24.90
2018-08-04T22:10:49.058Z,24.80
2018-08-04T22:13:17.626Z,24.60
2018-08-04T22:15:46.408Z,24.50
2018-08-04T22:18:16.682Z,24.40
2018-08-04T22:20:49.280Z,24.40
2018-08-04T22:23:18.510Z,24.40
2018-08-04T22:25:47.349Z,24.50
2018-08-04T22:28:16.948Z,24.50
2018-08-04T22:30:46.170Z,24.40
2018-08-04T22:33:16.067Z,24.30
2018-08-04T22:35:44.741Z,24.40
2018-08-04T22:38:13.628Z,24.30
2018-08-04T22:40:42.326Z,24.20
2018-08-04T22:43:10.480Z,24.20
2018-08-04T22:46:08.065Z,24.10
2018-08-04T22:48:36.270Z,23.90
2018-08-04T22:51:05.789Z,23.80
2018-08-04T22:53:35.395Z,23.80
2018-08-04T22:56:03.941Z,23.90
2018-08-04T22:58:32.471Z,23.90
2018-08-04T23:01:01.242Z,23.80
2018-08-04T23:03:30.558Z,23.80
2018-08-04T23:05:59.288Z,23.80
2018-08-04T23:08:29.876Z,23.80
2018-08-04T23:10:58.005Z,23.70
2018-08-04T23:13:26.743Z,23.60
2018-08-04T23:15:55.909Z,23.60
2018-08-04T23:18:25.549Z,23.50
2018-08-04T23:20:53.707Z,23.40
2018-08-04T23:23:21.857Z,23.40
2018-08-04T23:25:50.045Z,23.40
2018-08-04T23:28:19.448Z,23.40
2018-08-04T23:30:48.617Z,23.30
2018-08-04T23:33:17.667Z,23.30
2018-08-04T23:38:15.776Z,23.20
2018-08-04T23:40:45.077Z,23.20
2018-08-04T23:43:13.994Z,23.10
2018-08-04T23:45:42.173Z,23.10
2018-08-04T23:48:11.224Z,23.10
2018-08-04T23:50:39.872Z,23.00
2018-08-04T23:53:08.688Z,23.00
2018-08-04T23:55:37.687Z,22.90
2018-08-04T23:58:07.421Z,22.90
